createdAt,value
2023-01-01T00:00:10.235Z,278.03
2023-01-01T00:02:38.947Z,280.37
2023-01-01T00:05:08.304Z,271.03
2023-01-01T00:07:36.988Z,269.53
2023-01-01T00:10:24.019Z,285.43
2023-01-01T00:12:54.295Z,269.83
2023-01-01T00:15:23.055Z,278.93
2023-01-01T00:17:51.753Z,263.87
2023-01-01T00:20:21.121Z,272.40
2023-01-01T00:22:54.970Z,290.17
2023-01-01T00:25:20.307Z,278.57
2023-01-01T00:27:48.899Z,283.80
2023-01-01T00:30:17.713Z,309.73
2023-01-01T00:32:55.555Z,310.07
2023-01-01T00:35:18.377Z,295.63
2023-01-01T00:37:47.180Z,302.17
2023-01-01T00:40:15.748Z,323.27
2023-01-01T00:42:44.292Z,344.30
2023-01-01T00:45:18.774Z,326.27
2023-01-01T00:47:45.122Z,345.97
2023-01-01T00:50:13.704Z,359.33
2023-01-01T00:52:42.343Z,387.57
2023-01-01T00:55:11.801Z,374.37
2023-01-01T00:57:40.477Z,375.30
2023-01-01T01:00:11.103Z,368.80
2023-01-01T01:02:39.887Z,366.80
2023-01-01T01:05:09.686Z,385.17
2023-01-01T01:07:39.142Z,374.70
2023-01-01T01:10:09.723Z,398.00
2023-01-01T01:12:38.453Z,383.53
2023-01-01T01:15:08.284Z,405.47
2023-01-01T01:17:37.273Z,393.27
2023-01-01T01:20:06.839Z,394.03
2023-01-01T01:22:35.690Z,400.53
2023-01-01T01:25:04.815Z,387.60
2023-01-01T01:27:33.697Z,390.00
2023-01-01T01:30:02.328Z,385.00
2023-01-01T01:32:30.799Z,363.47
2023-01-01T01:34:59.396Z,376.93
2023-01-01T01:37:27.995Z,371.47
2023-01-01T01:39:56.653Z,379.50
2023-01-01T01:42:25.358Z,406.97
2023-01-01T01:44:59.704Z,414.63
2023-01-01T01:47:53.112Z,397.63
2023-01-01T01:50:27.815Z,440.70
2023-01-01T01:53:02.295Z,437.63
2023-01-01T01:55:33.921Z,400.50
2023-01-01T01:58:07.287Z,411.90
2023-01-01T02:00:35.872Z,389.80
2023-01-01T02:03:23.940Z,401.27
2023-01-01T02:05:52.960Z,380.23
2023-01-01T02:08:23.609Z,394.17
2023-01-01T02:10:52.487Z,388.50
2023-01-01T02:13:21.351Z,392.60
2023-01-01T02:16:09.579Z,400.43
2023-01-01T02:19:16.536Z,410.97
2023-01-01T02:21:53.904Z,413.43
2023-01-01T02:24:37.648Z,406.37
2023-01-01T02:27:25.749Z,400.27
2023-01-01T02:30:06.656Z,422.53
2023-01-01T02:33:01.899Z,409.50
2023-01-01T02:35:36.277Z,432.70
2023-01-01T02:38:13.385Z,429.37
2023-01-01T02:40:47.980Z,418.13
2023-01-01T02:43:21.478Z,415.93
2023-01-01T02:45:47.407Z,416.27
2023-01-01T02:48:51.534Z,413.93
2023-01-01T02:51:26.037Z,410.63
2023-01-01T02:54:15.820Z,398.97
2023-01-01T02:57:10.098Z,402.47
2023-01-01T02:59:59.219Z,399.93
2023-01-01T03:02:31.359Z,387.33
2023-01-01T03:05:09.673Z,407.23
2023-01-01T03:07:59.117Z,392.20
2023-01-01T03:10:33.503Z,387.83
2023-01-01T03:13:08.281Z,374.30
2023-01-01T03:15:39.897Z,404.10
2023-01-01T03:18:11.628Z,399.93
2023-01-01T03:20:43.573Z,434.80
2023-01-01T03:23:15.220Z,426.10
2023-01-01T03:25:52.792Z,414.03
2023-01-01T03:28:24.372Z,408.70
2023-01-01T03:30:55.547Z,378.90
2023-01-01T03:33:33.111Z,400.37
2023-01-01T03:36:10.710Z,372.80
2023-01-01T03:38:49.179Z,375.40
2023-01-01T03:41:23.678Z,366.53
2023-01-01T03:44:10.372Z,356.40
2023-01-01T03:46:39.455Z,356.53
2023-01-01T03:49:11.131Z,351.27
2023-01-01T03:51:57.709Z,366.90
2023-01-01T03:54:35.299Z,336.23
2023-01-01T03:57:09.696Z,348.20
2023-01-01T03:59:48.665Z,361.30
2023-01-01T04:02:20.621Z,341.37
2023-01-01T04:04:50.934Z,346.17
2023-01-01T04:07:20.253Z,360.33
2023-01-01T04:09:51.235Z,365.80
2023-01-01T04:12:21.227Z,370.27
2023-01-01T04:14:49.935Z,361.43
2023-01-01T04:17:18.700Z,373.17
2023-01-01T04:19:51.612Z,383.50
2023-01-01T04:22:18.189Z,350.60
2023-01-01T04:24:46.908Z,355.23
2023-01-01T04:27:17.153Z,348.60
2023-01-01T04:29:45.835Z,342.03
2023-01-01T04:32:14.467Z,350.43
2023-01-01T04:34:43.122Z,341.63
2023-01-01T04:37:13.656Z,338.07
2023-01-01T04:39:43.194Z,332.57
2023-01-01T04:42:11.861Z,339.03
2023-01-01T04:44:40.613Z,350.07
2023-01-01T04:47:09.187Z,340.33
2023-01-01T04:49:38.124Z,350.07
2023-01-01T04:52:07.180Z,320.07
2023-01-01T04:54:35.776Z,322.57
2023-01-01T04:57:04.426Z,310.03
2023-01-01T04:59:33.014Z,302.53
2023-01-01T05:02:01.915Z,338.83
2023-01-01T05:04:30.807Z,345.77
2023-01-01T05:06:59.496Z,333.90
2023-01-01T05:09:28.025Z,336.63
2023-01-01T05:11:56.751Z,340.90
2023-01-01T05:14:25.389Z,338.70
2023-01-01T05:16:54.520Z,343.77
2023-01-01T05:19:26.170Z,335.60
2023-01-01T05:21:55.826Z,342.73
2023-01-01T05:24:24.545Z,336.67
2023-01-01T05:26:53.247Z,334.70
2023-01-01T05:29:24.341Z,329.23
2023-01-01T05:31:53.396Z,322.80
2023-01-01T05:34:22.157Z,310.20
2023-01-01T05:36:50.769Z,311.50
2023-01-01T05:39:19.406Z,297.40
2023-01-01T05:41:48.085Z,286.10
2023-01-01T05:44:17.494Z,275.27
2023-01-01T05:46:46.128Z,247.53
2023-01-01T05:49:14.931Z,258.80
2023-01-01T05:51:43.720Z,243.20
2023-01-01T05:56:40.388Z,228.90
2023-01-01T05:59:10.666Z,214.13
2023-01-01T06:01:45.435Z,224.30
2023-01-01T06:04:09.556Z,236.13
2023-01-01T06:06:38.267Z,232.23
2023-01-01T06:09:07.069Z,235.30
2023-01-01T06:11:35.824Z,249.50
2023-01-01T06:14:04.729Z,243.40
2023-01-01T06:16:33.476Z,253.03
2023-01-01T06:19:02.206Z,249.97
2023-01-01T06:21:31.148Z,249.07
2023-01-01T06:24:01.967Z,239.73
2023-01-01T06:26:32.998Z,228.80
2023-01-01T06:29:03.185Z,217.90
2023-01-01T06:31:37.023Z,210.00
2023-01-01T06:34:02.723Z,200.67
2023-01-01T06:36:31.375Z,194.67
2023-01-01T06:39:00.473Z,176.77
2023-01-01T06:41:30.846Z,184.03
2023-01-01T06:44:02.411Z,170.70
2023-01-01T06:46:38.073Z,182.07
2023-01-01T06:49:09.586Z,172.37
2023-01-01T06:51:41.356Z,173.03
2023-01-01T06:54:10.967Z,169.00
2023-01-01T06:56:40.169Z,160.30
2023-01-01T06:59:08.856Z,156.30
2023-01-01T07:01:44.387Z,156.60
2023-01-01T07:04:19.767Z,154.17
2023-01-01T07:06:48.402Z,153.47
2023-01-01T07:09:17.098Z,145.93
2023-01-01T07:11:45.698Z,145.27
2023-01-01T07:14:15.718Z,147.30
2023-01-01T07:16:44.519Z,176.40
2023-01-01T07:19:13.169Z,155.20
2023-01-01T07:21:48.353Z,147.57
2023-01-01T07:24:23.236Z,141.77
2023-01-01T07:26:51.893Z,144.87
2023-01-01T07:29:42.397Z,149.37
2023-01-01T07:32:25.082Z,144.17
2023-01-01T07:34:57.324Z,151.77
2023-01-01T07:37:26.478Z,148.03
2023-01-01T07:40:08.984Z,149.77
2023-01-01T07:42:37.684Z,159.00
2023-01-01T07:45:08.772Z,150.73
2023-01-01T07:47:37.560Z,147.83
2023-01-01T07:50:06.860Z,154.40
2023-01-01T07:52:35.913Z,152.27
2023-01-01T07:55:12.545Z,152.77
2023-01-01T07:57:45.209Z,156.80
2023-01-01T08:00:19.670Z,164.53
2023-01-01T08:02:48.781Z,155.20
2023-01-01T08:05:26.070Z,164.77
2023-01-01T08:07:56.567Z,154.37
2023-01-01T08:10:25.253Z,158.97
2023-01-01T08:12:56.974Z,156.23
2023-01-01T08:15:25.875Z,160.30
2023-01-01T08:18:06.559Z,146.83
2023-01-01T08:20:35.594Z,141.77
2023-01-01T08:23:07.405Z,138.33
2023-01-01T08:25:34.862Z,151.27
2023-01-01T08:28:03.519Z,135.03
2023-01-01T08:30:32.095Z,138.00
2023-01-01T08:33:00.683Z,144.13
2023-01-01T08:35:29.397Z,139.83
2023-01-01T08:37:58.151Z,137.53
2023-01-01T08:40:26.727Z,139.97
2023-01-01T08:42:55.385Z,140.10
2023-01-01T08:45:23.999Z,147.67
2023-01-01T08:48:05.759Z,150.73
2023-01-01T08:50:34.585Z,147.93
2023-01-01T08:53:07.647Z,151.13
2023-01-01T08:55:36.213Z,150.03
2023-01-01T08:58:09.015Z,148.30
2023-01-01T09:00:37.859Z,137.73
2023-01-01T09:03:10.994Z,140.03
2023-01-01T09:05:39.808Z,143.50
2023-01-01T09:08:08.335Z,142.97
2023-01-01T09:10:36.954Z,133.90
2023-01-01T09:13:05.645Z,140.23
2023-01-01T09:15:34.175Z,142.57
2023-01-01T09:18:03.252Z,153.53
2023-01-01T09:20:32.027Z,138.10
2023-01-01T09:23:06.033Z,153.83
2023-01-01T09:25:34.303Z,145.50
2023-01-01T09:28:07.044Z,154.40
2023-01-01T09:30:39.186Z,144.07
2023-01-01T09:33:07.809Z,141.73
2023-01-01T09:35:38.036Z,143.73
2023-01-01T09:38:06.857Z,142.57
2023-01-01T09:40:58.798Z,141.57
2023-01-01T09:43:45.776Z,148.03
2023-01-01T09:46:16.327Z,137.27
2023-01-01T09:48:49.879Z,138.00
2023-01-01T09:51:33.369Z,129.43
2023-01-01T09:54:15.653Z,133.83
2023-01-01T09:56:46.730Z,124.70
2023-01-01T09:59:15.450Z,134.20
2023-01-01T10:01:47.147Z,129.20
2023-01-01T10:04:35.599Z,119.33
2023-01-01T10:07:09.165Z,120.60
2023-01-01T10:09:57.497Z,118.07
2023-01-01T10:12:38.035Z,116.77
2023-01-01T10:15:22.761Z,117.70
2023-01-01T10:17:54.356Z,112.50
2023-01-01T10:20:37.747Z,111.20
2023-01-01T10:23:15.016Z,111.70
2023-01-01T10:25:47.641Z,108.77
2023-01-01T10:28:23.635Z,103.10
2023-01-01T10:30:56.968Z,102.50
2023-01-01T10:33:26.983Z,105.87
2023-01-01T10:36:00.201Z,109.23
2023-01-01T10:38:28.874Z,104.53
2023-01-01T10:41:03.279Z,98.57
2023-01-01T10:43:31.846Z,95.10
2023-01-01T10:46:03.289Z,89.47
2023-01-01T10:48:36.192Z,88.70
2023-01-01T10:51:10.524Z,88.70
2023-01-01T10:53:54.800Z,89.23
2023-01-01T10:56:28.470Z,94.27
2023-01-01T10:58:58.936Z,100.17
2023-01-01T11:01:33.130Z,89.60
2023-01-01T11:04:10.753Z,98.70
2023-01-01T11:06:46.271Z,97.03
2023-01-01T11:09:39.258Z,95.77
2023-01-01T11:12:30.755Z,89.37
2023-01-01T11:14:44.434Z,89.30
2023-01-01T11:17:13.182Z,89.90
2023-01-01T11:19:50.325Z,90.67
2023-01-01T11:22:16.529Z,90.93
2023-01-01T11:24:49.713Z,88.07
2023-01-01T11:27:24.056Z,90.13
2023-01-01T11:29:58.119Z,87.00
2023-01-01T11:32:34.318Z,85.47
2023-01-01T11:35:08.942Z,94.23
2023-01-01T11:37:40.069Z,98.03
2023-01-01T11:40:11.754Z,91.10
2023-01-01T11:42:43.503Z,90.53
2023-01-01T11:45:46.625Z,91.60
2023-01-01T11:51:31.471Z,92.07
2023-01-01T11:54:35.364Z,88.87
2023-01-01T11:57:12.888Z,77.57
2023-01-01T12:00:03.008Z,83.97
2023-01-01T12:02:42.136Z,79.70
2023-01-01T12:05:34.799Z,81.20
2023-01-01T12:08:14.024Z,87.43
2023-01-01T12:10:50.637Z,86.00
2023-01-01T12:13:24.986Z,79.12
2023-01-01T12:16:17.436Z,80.70
2023-01-01T12:18:51.652Z,72.70
2023-01-01T12:21:28.470Z,70.97
2023-01-01T12:23:57.625Z,73.80
2023-01-01T12:26:32.490Z,68.10
2023-01-01T12:29:47.182Z,90.73
2023-01-01T12:32:19.047Z,64.47
2023-01-01T12:34:57.008Z,64.37
2023-01-01T12:37:46.584Z,61.83
2023-01-01T12:40:46.543Z,65.95
2023-01-01T12:43:55.683Z,66.50
2023-01-01T12:46:40.185Z,69.37
2023-01-01T12:50:07.934Z,66.95
2023-01-01T12:52:30.965Z,61.40
2023-01-01T12:55:22.734Z,62.70
2023-01-01T12:57:54.589Z,64.97
2023-01-01T13:00:25.377Z,71.90
2023-01-01T13:03:19.599Z,61.77
2023-01-01T13:05:51.693Z,61.67
2023-01-01T13:08:52.101Z,64.53
2023-01-01T13:11:37.316Z,58.97
2023-01-01T13:14:05.416Z,62.53
2023-01-01T13:16:41.555Z,69.05
2023-01-01T13:19:29.371Z,67.70
2023-01-01T13:21:58.487Z,62.95
2023-01-01T13:24:28.691Z,63.38
2023-01-01T13:26:57.409Z,64.67
2023-01-01T13:29:29.943Z,65.47
2023-01-01T13:32:03.784Z,64.27
2023-01-01T13:34:41.099Z,61.20
2023-01-01T13:37:17.456Z,62.58
2023-01-01T13:40:00.795Z,60.83
2023-01-01T13:42:47.671Z,63.83
2023-01-01T13:45:44.160Z,64.40
2023-01-01T13:48:12.421Z,66.40
2023-01-01T13:51:09.853Z,66.77
2023-01-01T13:54:11.432Z,63.60
2023-01-01T13:56:57.846Z,60.40
2023-01-01T13:59:46.016Z,64.17
2023-01-01T14:02:31.327Z,68.87
2023-01-01T14:05:10.321Z,56.98
2023-01-01T14:07:52.714Z,64.60
2023-01-01T14:10:36.588Z,63.33
2023-01-01T14:13:10.893Z,62.78
2023-01-01T14:15:42.007Z,58.87
2023-01-01T14:18:16.651Z,63.23
2023-01-01T14:20:48.209Z,66.53
2023-01-01T14:23:27.027Z,67.17
2023-01-01T14:29:00.281Z,65.30
2023-01-01T14:29:38.744Z,66.80
2023-01-01T14:31:32.325Z,67.97
2023-01-01T14:34:02.549Z,70.23
2023-01-01T14:36:32.685Z,66.62
2023-01-01T14:39:05.249Z,72.87
2023-01-01T14:41:41.625Z,74.27
2023-01-01T14:44:19.309Z,69.87
2023-01-01T14:46:53.522Z,70.17
2023-01-01T14:49:37.624Z,62.93
2023-01-01T14:52:12.298Z,63.55
2023-01-01T14:54:43.988Z,68.50
2023-01-01T14:57:33.782Z,70.97
2023-01-01T15:00:23.698Z,70.20
2023-01-01T15:02:52.659Z,68.60
2023-01-01T15:05:35.837Z,71.67
2023-01-01T15:08:08.715Z,76.63
2023-01-01T15:10:40.906Z,72.40
2023-01-01T15:13:10.024Z,73.73
2023-01-01T15:15:42.273Z,81.97
2023-01-01T15:18:39.354Z,78.20
2023-01-01T15:21:16.710Z,89.13
2023-01-01T15:24:00.343Z,80.77
2023-01-01T15:26:48.006Z,80.00
2023-01-01T15:29:21.331Z,74.63
2023-01-01T15:31:52.489Z,70.77
2023-01-01T15:34:24.532Z,71.27
2023-01-01T15:36:54.829Z,75.80
2023-01-01T15:39:23.872Z,72.27
2023-01-01T15:41:54.104Z,73.20
2023-01-01T15:44:31.805Z,66.30
2023-01-01T15:47:09.412Z,64.47
2023-01-01T15:49:38.153Z,69.40
2023-01-01T15:52:09.809Z,79.90
2023-01-01T15:54:40.492Z,84.90
2023-01-01T15:57:20.929Z,66.57
2023-01-01T15:59:53.273Z,67.17
2023-01-01T16:02:34.247Z,73.23
2023-01-01T16:05:13.807Z,67.00
2023-01-01T16:07:43.293Z,70.47
2023-01-01T16:10:17.317Z,73.50
2023-01-01T16:12:45.935Z,72.87
2023-01-01T16:15:17.151Z,69.00
2023-01-01T16:17:56.044Z,66.27
2023-01-01T16:20:47.446Z,65.93
2023-01-01T16:23:30.925Z,69.40
2023-01-01T16:26:07.835Z,62.07
2023-01-01T16:28:52.367Z,72.10
2023-01-01T16:31:25.268Z,68.07
2023-01-01T16:34:10.996Z,74.93
2023-01-01T16:36:49.087Z,66.53
2023-01-01T16:39:24.538Z,63.47
2023-01-01T16:41:53.291Z,77.40
2023-01-01T16:44:41.916Z,65.60
2023-01-01T16:47:30.157Z,74.87
2023-01-01T16:53:16.426Z,67.60
2023-01-01T16:58:55.261Z,65.83
2023-01-01T17:01:36.962Z,72.70
2023-01-01T17:03:56.139Z,65.33
2023-01-01T17:06:29.171Z,62.37
2023-01-01T17:12:04.314Z,75.07
2023-01-01T17:14:44.858Z,69.23
2023-01-01T17:17:36.613Z,83.20
2023-01-01T17:20:12.170Z,73.60
2023-01-01T17:22:55.050Z,68.27
2023-01-01T17:25:25.899Z,66.50
2023-01-01T17:28:02.939Z,72.60
2023-01-01T17:30:39.963Z,76.63
2023-01-01T17:33:32.054Z,85.03
2023-01-01T17:36:20.239Z,76.07
2023-01-01T17:38:50.827Z,76.10
2023-01-01T17:41:24.635Z,68.93
2023-01-01T17:43:58.528Z,71.83
2023-01-01T17:46:38.356Z,74.03
2023-01-01T17:49:14.876Z,118.77
2023-01-01T17:52:43.566Z,106.27
2023-01-01T17:54:37.939Z,80.90
2023-01-01T17:57:22.600Z,86.60
2023-01-01T18:00:00.651Z,69.87
2023-01-01T18:05:27.731Z,64.37
2023-01-01T18:08:09.007Z,63.70
2023-01-01T18:10:55.386Z,76.37
2023-01-01T18:13:26.266Z,65.27
2023-01-01T18:16:07.661Z,68.30
2023-01-01T18:18:57.163Z,73.27
2023-01-01T18:21:29.522Z,68.53
2023-01-01T18:24:01.660Z,71.23
2023-01-01T18:26:35.142Z,69.63
2023-01-01T18:29:06.382Z,73.30
2023-01-01T18:31:45.849Z,77.63
2023-01-01T18:34:24.275Z,81.53
2023-01-01T18:36:50.337Z,67.27
2023-01-01T18:39:30.235Z,71.40
2023-01-01T18:45:15.785Z,73.83
2023-01-01T18:50:29.916Z,69.33
2023-01-01T18:53:09.457Z,67.40
2023-01-01T18:58:42.382Z,59.47
2023-01-01T19:01:36.168Z,69.03
2023-01-01T19:04:13.219Z,62.17
2023-01-01T19:13:05.075Z,70.87
2023-01-01T19:18:51.825Z,61.23
2023-01-01T19:33:24.776Z,73.13
2023-01-01T19:36:10.169Z,295.70
2023-01-01T19:38:56.562Z,72.30
2023-01-01T19:41:36.059Z,77.77
2023-01-01T19:47:20.462Z,79.00
2023-01-01T20:04:53.828Z,84.83
2023-01-01T20:07:25.409Z,110.37
2023-01-01T20:15:54.348Z,123.67
2023-01-01T20:21:59.076Z,108.17
2023-01-01T20:29:02.474Z,97.33
2023-01-01T20:32:29.516Z,103.40
2023-01-01T20:35:16.349Z,106.37
2023-01-01T20:37:53.442Z,112.13
2023-01-01T20:40:42.420Z,115.37
2023-01-01T20:46:15.471Z,113.60
2023-01-01T20:48:47.089Z,115.03
2023-01-01T20:54:27.914Z,110.97
2023-01-01T20:56:54.082Z,128.77
2023-01-01T20:59:53.704Z,106.03
2023-01-01T21:02:35.698Z,109.53
2023-01-01T21:05:23.962Z,105.37
2023-01-01T21:08:01.924Z,107.60
2023-01-01T21:10:50.124Z,110.77
2023-01-01T21:13:25.289Z,117.97
2023-01-01T21:15:59.089Z,117.20
2023-01-01T21:18:47.631Z,112.83
2023-01-01T21:21:47.147Z,111.63
2023-01-01T21:24:33.032Z,104.60
2023-01-01T21:27:12.486Z,114.50
2023-01-01T21:29:50.184Z,106.20
2023-01-01T21:32:32.336Z,105.13
2023-01-01T21:35:20.303Z,107.03
2023-01-01T21:38:09.853Z,106.53
2023-01-01T21:41:05.915Z,107.23
2023-01-01T21:43:44.841Z,117.97
2023-01-01T21:46:21.752Z,110.17
2023-01-01T21:49:01.907Z,117.33
2023-01-01T21:51:46.446Z,116.63
2023-01-01T21:54:26.491Z,113.87
2023-01-01T21:57:07.753Z,114.63
2023-01-01T21:59:52.223Z,113.83
2023-01-01T22:02:38.132Z,113.17
2023-01-01T22:05:36.771Z,122.27
2023-01-01T22:08:31.016Z,111.40
2023-01-01T22:11:05.013Z,114.17
2023-01-01T22:13:55.014Z,115.87
2023-01-01T22:16:32.276Z,119.77
2023-01-01T22:22:09.528Z,113.43
2023-01-01T22:25:12.598Z,115.30
2023-01-01T22:28:05.951Z,130.10
2023-01-01T22:30:45.902Z,131.30
2023-01-01T22:33:35.715Z,139.83
2023-01-01T22:42:35.932Z,198.13
2023-01-01T22:45:38.403Z,212.47
2023-01-01T22:52:48.193Z,187.63
2023-01-01T22:54:13.927Z,143.73
2023-01-01T22:56:44.619Z,130.73
2023-01-01T22:59:35.629Z,143.33
2023-01-01T23:02:08.989Z,131.20
2023-01-01T23:05:09.659Z,145.57
2023-01-01T23:07:42.172Z,145.30
2023-01-01T23:10:14.214Z,140.30
2023-01-01T23:12:43.064Z,155.93
2023-01-01T23:15:30.312Z,147.10
2023-01-01T23:17:59.156Z,147.07
2023-01-01T23:20:30.174Z,157.10
2023-01-01T23:23:00.284Z,152.27
2023-01-01T23:25:35.002Z,154.00
2023-01-01T23:28:03.768Z,149.37
2023-01-01T23:30:33.505Z,143.43
2023-01-01T23:33:02.430Z,142.10
2023-01-01T23:35:33.121Z,140.87
2023-01-01T23:38:02.653Z,135.17
2023-01-01T23:40:36.258Z,145.27
2023-01-01T23:43:07.943Z,142.73
2023-01-01T23:45:38.409Z,149.70
2023-01-01T23:48:08.499Z,150.27
2023-01-01T23:50:37.702Z,145.37
2023-01-01T23:53:09.993Z,151.00
2023-01-01T23:55:40.117Z,148.83
2023-01-01T23:58:22.596Z,148.67
